createdAt,value
2022-10-15T00:01:37.419Z,7.75
2022-10-15T00:04:05.932Z,7.75
2022-10-15T00:06:34.734Z,7.75
2022-10-15T00:09:04.893Z,7.74
2022-10-15T00:11:32.972Z,7.74
2022-10-15T00:14:01.029Z,7.78
2022-10-15T00:16:29.741Z,7.81
2022-10-15T00:19:00.154Z,7.84
2022-10-15T00:21:28.455Z,7.87
2022-10-15T00:23:57.128Z,7.89
2022-10-15T00:26:27.220Z,7.93
2022-10-15T00:28:58.093Z,7.96
2022-10-15T00:31:28.163Z,8.00
2022-10-15T00:33:58.901Z,8.03
2022-10-15T00:36:30.272Z,8.03
2022-10-15T00:38:59.364Z,8.05
2022-10-15T00:41:33.022Z,8.07
2022-10-15T00:44:22.628Z,8.09
2022-10-15T00:47:13.559Z,8.10
2022-10-15T00:49:49.045Z,8.14
2022-10-15T00:52:23.955Z,8.16
2022-10-15T00:55:03.307Z,8.16
2022-10-15T00:57:33.494Z,8.14
2022-10-15T01:00:07.779Z,8.11
2022-10-15T01:02:35.879Z,8.07
2022-10-15T01:05:10.951Z,8.02
2022-10-15T01:07:41.229Z,7.98
2022-10-15T01:10:11.155Z,7.92
2022-10-15T01:12:45.741Z,7.84
2022-10-15T01:15:19.496Z,7.75
2022-10-15T01:17:49.647Z,7.67
2022-10-15T01:20:36.909Z,7.59
2022-10-15T01:23:04.971Z,7.50
2022-10-15T01:26:08.001Z,7.42
2022-10-15T01:29:26.272Z,7.33
2022-10-15T01:32:09.333Z,7.25
2022-10-15T01:35:06.516Z,7.17
2022-10-15T01:37:59.613Z,7.09
2022-10-15T01:40:34.182Z,7.00
2022-10-15T01:43:08.156Z,6.94
2022-10-15T01:45:49.376Z,6.88
2022-10-15T01:48:38.688Z,6.81
2022-10-15T01:51:08.070Z,6.76
2022-10-15T01:53:37.794Z,6.71
2022-10-15T01:56:14.758Z,6.69
2022-10-15T01:58:49.456Z,6.69
2022-10-15T02:02:31.750Z,6.72
2022-10-15T02:04:59.885Z,6.82
2022-10-15T02:08:20.341Z,6.90
2022-10-15T02:11:13.667Z,6.99
2022-10-15T02:14:25.629Z,7.10
2022-10-15T02:17:17.758Z,7.22
2022-10-15T02:22:48.882Z,7.48
2022-10-15T02:25:22.730Z,7.61
2022-10-15T02:27:54.905Z,7.70
2022-10-15T02:30:24.449Z,7.76
2022-10-15T02:32:57.163Z,7.85
2022-10-15T02:35:27.458Z,7.94
2022-10-15T02:37:59.352Z,8.04
2022-10-15T02:40:30.170Z,8.13
2022-10-15T02:42:59.872Z,8.22
2022-10-15T02:45:27.885Z,8.27
2022-10-15T02:47:56.997Z,8.31
2022-10-15T02:50:25.429Z,8.31
2022-10-15T02:52:53.451Z,8.33
2022-10-15T02:55:21.601Z,8.35
2022-10-15T02:57:50.009Z,8.37
2022-10-15T03:00:18.667Z,8.38
2022-10-15T03:02:49.744Z,8.42
2022-10-15T03:05:18.797Z,8.43
2022-10-15T03:07:46.798Z,8.45
2022-10-15T03:10:16.300Z,8.47
2022-10-15T03:12:44.752Z,8.47
2022-10-15T03:15:13.661Z,8.47
2022-10-15T03:17:42.174Z,8.41
2022-10-15T03:20:10.332Z,8.34
2022-10-15T03:22:38.639Z,8.29
2022-10-15T03:25:06.924Z,8.26
2022-10-15T03:27:35.532Z,8.21
2022-10-15T03:30:08.346Z,8.17
2022-10-15T03:32:36.557Z,8.13
2022-10-15T03:43:29.429Z,7.76
2022-10-15T03:46:03.306Z,7.59
2022-10-15T03:48:31.889Z,7.47
2022-10-15T03:50:59.853Z,7.36
2022-10-15T03:53:27.849Z,7.27
2022-10-15T03:55:55.923Z,7.23
2022-10-15T03:58:24.817Z,7.20
2022-10-15T04:00:56.518Z,7.14
2022-10-15T04:03:24.568Z,7.06
2022-10-15T04:05:54.742Z,7.00
2022-10-15T04:08:25.763Z,6.99
2022-10-15T04:10:54.284Z,6.99
2022-10-15T04:13:22.492Z,6.95
2022-10-15T04:15:50.446Z,6.91
2022-10-15T04:18:22.067Z,6.89
2022-10-15T04:20:51.915Z,6.91
2022-10-15T04:23:22.473Z,6.94
2022-10-15T04:26:16.224Z,6.93
2022-10-15T04:28:44.246Z,6.90
2022-10-15T04:31:12.687Z,6.91
2022-10-15T04:33:40.737Z,6.94
2022-10-15T04:36:13.509Z,6.94
2022-10-15T04:39:14.698Z,6.90
2022-10-15T04:41:44.593Z,6.86
2022-10-15T04:44:29.279Z,6.82
2022-10-15T04:46:58.705Z,6.78
2022-10-15T04:49:35.945Z,6.75
2022-10-15T04:52:09.112Z,6.72
2022-10-15T04:54:50.934Z,6.68
2022-10-15T04:57:19.457Z,6.66
2022-10-15T04:59:47.522Z,6.68
2022-10-15T05:02:29.034Z,6.69
2022-10-15T05:05:09.397Z,6.62
2022-10-15T05:07:45.633Z,6.58
2022-10-15T05:10:13.719Z,6.57
2022-10-15T05:15:11.477Z,6.47
2022-10-15T05:17:39.541Z,6.43
2022-10-15T05:20:09.445Z,6.40
2022-10-15T05:22:37.717Z,6.39
2022-10-15T05:25:06.391Z,6.47
2022-10-15T05:27:37.217Z,6.53
2022-10-15T05:30:06.580Z,6.55
2022-10-15T05:32:42.329Z,6.55
2022-10-15T05:35:12.376Z,6.60
2022-10-15T05:38:00.566Z,6.63
2022-10-15T05:40:28.564Z,6.66
2022-10-15T05:43:04.713Z,6.69
2022-10-15T05:45:38.511Z,6.70
2022-10-15T05:55:17.823Z,6.53
2022-10-15T05:57:45.886Z,6.50
2022-10-15T06:00:14.587Z,6.51
2022-10-15T06:02:42.541Z,6.55
2022-10-15T06:05:10.656Z,6.64
2022-10-15T06:07:38.496Z,6.74
2022-10-15T06:10:06.778Z,6.85
2022-10-15T06:12:39.263Z,6.94
2022-10-15T06:15:07.524Z,6.98
2022-10-15T06:17:35.462Z,7.02
2022-10-15T06:20:06.702Z,7.08
2022-10-15T06:25:08.178Z,7.18
2022-10-15T06:28:07.537Z,7.26
2022-10-15T06:31:14.262Z,7.33
2022-10-15T06:33:42.588Z,7.41
2022-10-15T06:36:14.069Z,7.49
2022-10-15T06:38:47.983Z,7.54
2022-10-15T06:42:05.132Z,7.61
2022-10-15T06:44:43.293Z,7.75
2022-10-15T06:47:12.751Z,7.86
2022-10-15T06:49:44.587Z,7.96
2022-10-15T06:52:12.600Z,8.04
2022-10-15T06:54:40.776Z,8.13
2022-10-15T06:57:10.247Z,8.20
2022-10-15T06:59:41.452Z,8.31
2022-10-15T07:02:11.099Z,8.41
2022-10-15T07:04:38.894Z,8.47
2022-10-15T07:07:06.685Z,8.52
2022-10-15T07:09:35.491Z,8.55
2022-10-15T07:12:03.978Z,8.57
2022-10-15T07:14:35.576Z,8.58
2022-10-15T07:17:06.857Z,8.64
2022-10-15T07:19:34.648Z,8.73
2022-10-15T07:22:02.522Z,8.81
2022-10-15T07:24:30.440Z,8.85
2022-10-15T07:26:58.468Z,8.96
2022-10-15T07:29:26.260Z,9.03
2022-10-15T07:31:54.148Z,9.06
2022-10-15T07:34:22.786Z,9.07
2022-10-15T07:36:50.555Z,9.07
2022-10-15T07:39:19.665Z,9.04
2022-10-15T07:41:47.468Z,9.02
2022-10-15T07:44:15.283Z,9.05
2022-10-15T07:46:43.301Z,9.13
2022-10-15T07:49:11.832Z,9.22
2022-10-15T07:51:39.594Z,9.29
2022-10-15T07:54:07.412Z,9.36
2022-10-15T07:56:35.260Z,9.43
2022-10-15T07:59:03.115Z,9.43
2022-10-15T08:01:30.981Z,9.42
2022-10-15T08:03:58.791Z,9.44
2022-10-15T08:06:26.643Z,9.43
2022-10-15T08:08:54.499Z,9.42
2022-10-15T08:11:22.300Z,9.39
2022-10-15T08:13:52.202Z,9.39
2022-10-15T08:16:20.248Z,9.44
2022-10-15T08:18:59.654Z,9.52
2022-10-15T08:21:27.534Z,9.58
2022-10-15T08:23:55.534Z,9.64
2022-10-15T08:26:31.057Z,9.69
2022-10-15T08:28:58.909Z,9.71
2022-10-15T08:31:26.793Z,9.75
2022-10-15T08:33:54.657Z,9.72
2022-10-15T08:36:22.492Z,9.68
2022-10-15T08:38:51.774Z,9.68
2022-10-15T08:41:47.446Z,9.70
2022-10-15T08:44:24.136Z,9.70
2022-10-15T08:47:29.877Z,9.71
2022-10-15T08:50:02.658Z,9.79
2022-10-15T08:52:33.081Z,9.92
2022-10-15T08:55:02.562Z,9.97
2022-10-15T08:57:39.629Z,9.99
2022-10-15T09:00:21.907Z,10.07
2022-10-15T09:03:05.580Z,10.17
2022-10-15T09:05:39.340Z,10.22
2022-10-15T09:08:23.678Z,10.25
2022-10-15T09:11:07.528Z,10.30
2022-10-15T09:13:40.893Z,10.26
2022-10-15T09:16:27.941Z,10.18
2022-10-15T09:18:58.772Z,10.20
2022-10-15T09:21:27.027Z,10.20
2022-10-15T09:24:01.063Z,10.28
2022-10-15T09:26:50.264Z,10.37
2022-10-15T09:29:18.026Z,10.41
2022-10-15T09:32:05.241Z,10.44
2022-10-15T09:34:43.673Z,10.51
2022-10-15T09:37:28.170Z,10.54
2022-10-15T09:40:29.968Z,10.50
2022-10-15T09:43:00.421Z,10.55
2022-10-15T09:45:28.722Z,10.60
2022-10-15T09:48:00.350Z,10.66
2022-10-15T09:50:44.202Z,10.69
2022-10-15T09:53:32.566Z,10.72
2022-10-15T09:56:11.185Z,10.79
2022-10-15T09:59:05.887Z,10.89
2022-10-15T10:01:36.959Z,10.96
2022-10-15T10:04:19.449Z,10.93
2022-10-15T10:06:56.792Z,10.96
2022-10-15T10:09:31.901Z,11.03
2022-10-15T10:12:05.115Z,11.03
2022-10-15T10:14:46.756Z,11.07
2022-10-15T10:17:20.806Z,11.15
2022-10-15T10:20:18.804Z,11.23
2022-10-15T10:22:53.192Z,11.24
2022-10-15T10:25:27.283Z,11.28
2022-10-15T10:27:58.414Z,11.31
2022-10-15T10:30:28.128Z,11.35
2022-10-15T10:33:00.730Z,11.44
2022-10-15T10:35:44.013Z,11.59
2022-10-15T10:38:21.277Z,11.76
2022-10-15T10:40:59.249Z,11.85
2022-10-15T10:43:29.209Z,11.90
2022-10-15T10:46:01.313Z,11.99
2022-10-15T10:48:39.652Z,12.10
2022-10-15T10:51:19.527Z,12.24
2022-10-15T10:54:07.085Z,12.41
2022-10-15T10:56:44.910Z,12.62
2022-10-15T10:59:25.672Z,12.76
2022-10-15T11:01:54.383Z,12.83
2022-10-15T11:04:22.297Z,12.90
2022-10-15T11:07:13.240Z,13.00
2022-10-15T11:10:10.599Z,13.15
2022-10-15T11:13:02.137Z,13.29
2022-10-15T11:15:40.233Z,13.43
2022-10-15T11:18:36.002Z,13.53
2022-10-15T11:21:09.777Z,13.67
2022-10-15T11:23:52.644Z,13.79
2022-10-15T11:26:51.967Z,13.90
2022-10-15T11:30:03.256Z,13.86
2022-10-15T11:33:07.051Z,13.93
2022-10-15T11:35:59.038Z,14.03
2022-10-15T11:38:30.229Z,14.03
2022-10-15T11:41:05.152Z,13.98
2022-10-15T11:44:02.039Z,13.96
2022-10-15T11:46:42.772Z,13.96
2022-10-15T11:49:25.944Z,14.01
2022-10-15T11:52:07.208Z,14.10
2022-10-15T11:54:38.196Z,14.08
2022-10-15T11:57:11.920Z,14.06
2022-10-15T11:59:54.755Z,14.06
2022-10-15T12:02:28.668Z,14.09
2022-10-15T12:05:00.687Z,14.18
2022-10-15T12:07:34.930Z,14.21
2022-10-15T12:10:09.688Z,14.26
2022-10-15T12:12:44.202Z,14.38
2022-10-15T12:15:25.961Z,14.49
2022-10-15T12:18:31.598Z,14.56
2022-10-15T12:20:59.877Z,14.56
2022-10-15T12:23:36.986Z,14.58
2022-10-15T12:26:23.833Z,14.63
2022-10-15T12:28:59.534Z,14.75
2022-10-15T12:31:49.091Z,14.81
2022-10-15T12:34:37.587Z,14.85
2022-10-15T12:37:27.932Z,14.98
2022-10-15T12:40:00.162Z,15.10
2022-10-15T12:42:39.648Z,15.15
2022-10-15T12:45:40.437Z,15.09
2022-10-15T12:48:08.685Z,14.97
2022-10-15T12:50:37.492Z,14.83
2022-10-15T12:53:07.313Z,14.77
2022-10-15T12:55:39.125Z,14.70
2022-10-15T12:58:32.719Z,14.65
2022-10-15T13:01:23.703Z,14.62
2022-10-15T13:03:51.581Z,14.65
2022-10-15T13:06:22.672Z,14.68
2022-10-15T13:09:10.218Z,14.80
2022-10-15T13:11:48.998Z,15.02
2022-10-15T13:14:29.420Z,15.16
2022-10-15T13:17:04.866Z,15.23
2022-10-15T13:19:41.039Z,15.25
2022-10-15T13:22:28.065Z,15.29
2022-10-15T13:24:56.603Z,15.37
2022-10-15T13:27:33.653Z,15.42
2022-10-15T13:30:06.565Z,15.49
2022-10-15T13:32:45.948Z,15.56
2022-10-15T13:35:20.789Z,15.60
2022-10-15T13:37:49.400Z,15.56
2022-10-15T13:40:29.347Z,15.50
2022-10-15T13:42:59.938Z,15.56
2022-10-15T13:45:29.578Z,15.59
2022-10-15T13:47:58.939Z,15.55
2022-10-15T13:50:28.884Z,15.48
2022-10-15T13:53:16.995Z,15.49
2022-10-15T13:55:48.401Z,15.53
2022-10-15T13:58:23.580Z,15.57
2022-10-15T14:00:59.028Z,15.62
2022-10-15T14:03:36.081Z,15.64
2022-10-15T14:06:19.224Z,15.64
2022-10-15T14:08:53.067Z,15.65
2022-10-15T14:11:21.429Z,15.63
2022-10-15T14:13:52.013Z,15.59
2022-10-15T14:16:38.193Z,15.52
2022-10-15T14:19:06.690Z,15.50
2022-10-15T14:21:35.955Z,15.44
2022-10-15T14:24:10.996Z,15.39
2022-10-15T14:26:41.717Z,15.38
2022-10-15T14:29:18.855Z,15.41
2022-10-15T14:31:48.349Z,15.36
2022-10-15T14:34:34.684Z,15.31
2022-10-15T14:37:23.504Z,15.21
2022-10-15T14:40:08.617Z,15.11
2022-10-15T14:42:55.113Z,15.03
2022-10-15T14:45:31.980Z,14.95
2022-10-15T14:48:03.283Z,14.90
2022-10-15T14:50:33.908Z,14.84
2022-10-15T14:53:08.444Z,14.78
2022-10-15T14:55:47.467Z,14.72
2022-10-15T14:58:21.558Z,14.68
2022-10-15T15:00:58.069Z,14.64
2022-10-15T15:03:28.211Z,14.61
2022-10-15T15:05:57.529Z,14.58
2022-10-15T15:08:26.761Z,14.56
2022-10-15T15:10:57.393Z,14.53
2022-10-15T15:13:27.465Z,14.48
2022-10-15T15:15:55.267Z,14.41
2022-10-15T15:18:23.599Z,14.37
2022-10-15T15:20:51.713Z,14.33
2022-10-15T15:23:23.333Z,14.26
2022-10-15T15:25:52.422Z,14.19
2022-10-15T15:28:25.768Z,14.09
2022-10-15T15:31:00.068Z,14.00
2022-10-15T15:33:28.750Z,13.94
2022-10-15T15:36:07.633Z,13.89
2022-10-15T15:41:19.643Z,13.77
2022-10-15T15:43:48.623Z,13.69
2022-10-15T15:46:17.437Z,13.61
2022-10-15T15:48:45.354Z,13.51
2022-10-15T15:51:41.045Z,13.40
2022-10-15T15:54:10.632Z,13.25
2022-10-15T15:56:40.254Z,13.09
2022-10-15T15:59:08.081Z,12.96
2022-10-15T16:01:36.017Z,12.88
2022-10-15T16:04:04.104Z,12.80
2022-10-15T16:06:31.970Z,12.72
2022-10-15T16:08:59.770Z,12.61
2022-10-15T16:11:27.618Z,12.51
2022-10-15T16:13:55.833Z,12.41
2022-10-15T16:16:24.501Z,12.31
2022-10-15T16:18:52.289Z,12.23
2022-10-15T16:21:27.731Z,12.16
2022-10-15T16:23:55.820Z,12.08
2022-10-15T16:26:23.817Z,12.02
2022-10-15T16:28:51.700Z,11.96
2022-10-15T16:31:26.444Z,11.92
2022-10-15T16:33:58.798Z,11.86
2022-10-15T16:36:26.703Z,11.77
2022-10-15T16:38:54.667Z,11.68
2022-10-15T16:41:22.665Z,11.63
2022-10-15T16:43:50.512Z,11.57
2022-10-15T16:46:19.497Z,11.50
2022-10-15T16:48:54.077Z,11.40
2022-10-15T16:51:23.208Z,11.32
2022-10-15T16:53:52.019Z,11.25
2022-10-15T16:56:25.871Z,11.19
2022-10-15T16:58:55.066Z,11.13
2022-10-15T17:01:26.193Z,11.08
2022-10-15T17:03:54.147Z,11.04
2022-10-15T17:06:25.479Z,11.00
2022-10-15T17:08:56.057Z,10.96
2022-10-15T17:11:34.722Z,10.90
2022-10-15T17:14:06.017Z,10.86
2022-10-15T17:16:42.970Z,10.83
2022-10-15T17:19:12.078Z,10.82
2022-10-15T17:21:42.491Z,10.84
2022-10-15T17:24:14.364Z,10.84
2022-10-15T17:26:44.588Z,10.83
2022-10-15T17:29:16.586Z,10.81
2022-10-15T17:31:44.462Z,10.75
2022-10-15T17:34:12.960Z,10.72
2022-10-15T17:36:45.505Z,10.68
2022-10-15T17:39:19.335Z,10.62
2022-10-15T17:41:47.318Z,10.59
2022-10-15T17:44:15.154Z,10.58
2022-10-15T17:46:43.093Z,10.58
2022-10-15T17:49:11.333Z,10.61
2022-10-15T17:51:40.518Z,10.65
2022-10-15T17:54:08.492Z,10.69
2022-10-15T17:56:40.732Z,10.73
2022-10-15T17:59:11.138Z,10.75
2022-10-15T18:01:58.796Z,10.78
2022-10-15T18:04:30.969Z,10.82
2022-10-15T18:06:58.843Z,10.81
2022-10-15T18:09:28.190Z,10.76
2022-10-15T18:11:58.251Z,10.72
2022-10-15T18:14:29.517Z,10.70
2022-10-15T18:16:57.787Z,10.64
2022-10-15T18:19:26.888Z,10.59
2022-10-15T18:21:55.999Z,10.55
2022-10-15T18:24:24.460Z,10.52
2022-10-15T18:26:53.136Z,10.49
2022-10-15T18:29:22.579Z,10.44
2022-10-15T18:31:56.225Z,10.42
2022-10-15T18:34:25.691Z,10.40
2022-10-15T18:36:53.580Z,10.37
2022-10-15T18:39:23.625Z,10.33
2022-10-15T18:41:51.478Z,10.29
2022-10-15T18:44:21.652Z,10.23
2022-10-15T18:46:49.707Z,10.18
2022-10-15T18:49:19.537Z,10.11
2022-10-15T18:51:51.858Z,10.05
2022-10-15T18:54:20.447Z,10.00
2022-10-15T18:56:48.898Z,9.94
2022-10-15T18:59:20.497Z,9.87
2022-10-15T19:01:50.946Z,9.84
2022-10-15T19:04:20.506Z,9.82
2022-10-15T19:06:51.472Z,9.80
2022-10-15T19:09:22.977Z,9.78
2022-10-15T19:11:53.364Z,9.74
2022-10-15T19:14:22.242Z,9.67
2022-10-15T19:16:50.587Z,9.65
2022-10-15T19:19:21.172Z,9.63
2022-10-15T19:21:50.685Z,9.60
2022-10-15T19:24:20.664Z,9.59
2022-10-15T19:26:49.792Z,9.57
2022-10-15T19:29:18.628Z,9.57
2022-10-15T19:31:49.944Z,9.58
2022-10-15T19:34:18.484Z,9.58
2022-10-15T19:36:48.348Z,9.60
2022-10-15T19:39:24.161Z,9.62
2022-10-15T19:41:52.862Z,9.65
2022-10-15T19:44:25.711Z,9.67
2022-10-15T19:46:56.189Z,9.68
2022-10-15T19:49:24.868Z,9.72
2022-10-15T19:51:53.108Z,9.73
2022-10-15T19:54:21.159Z,9.72
2022-10-15T19:56:49.059Z,9.71
2022-10-15T19:59:16.995Z,9.71
2022-10-15T20:01:45.162Z,9.72
2022-10-15T20:04:13.145Z,9.72
2022-10-15T20:06:40.983Z,9.72
2022-10-15T20:09:09.044Z,9.75
2022-10-15T20:11:38.102Z,9.76
2022-10-15T20:14:06.340Z,9.72
2022-10-15T20:16:34.226Z,9.66
2022-10-15T20:19:04.160Z,9.57
2022-10-15T20:21:32.299Z,9.51
2022-10-15T20:24:04.119Z,9.42
2022-10-15T20:26:33.419Z,9.33
2022-10-15T20:29:01.713Z,9.26
2022-10-15T20:31:33.096Z,9.19
2022-10-15T20:34:03.242Z,9.11
2022-10-15T20:36:31.647Z,9.01
2022-10-15T20:39:01.322Z,8.92
2022-10-15T20:41:29.449Z,8.82
2022-10-15T20:43:57.782Z,8.75
2022-10-15T20:46:33.446Z,8.68
2022-10-15T20:49:09.197Z,8.61
2022-10-15T20:51:41.514Z,8.53
2022-10-15T20:54:12.016Z,8.46
2022-10-15T20:56:40.739Z,8.40
2022-10-15T20:59:08.887Z,8.36
2022-10-15T21:01:37.257Z,8.35
2022-10-15T21:04:06.233Z,8.33
2022-10-15T21:06:34.140Z,8.31
2022-10-15T21:09:02.166Z,8.30
2022-10-15T21:11:29.988Z,8.28
2022-10-15T21:14:01.363Z,8.29
2022-10-15T21:16:29.825Z,8.32
2022-10-15T21:18:57.752Z,8.34
2022-10-15T21:21:25.730Z,8.36
2022-10-15T21:23:53.844Z,8.38
2022-10-15T21:26:22.339Z,8.41
2022-10-15T21:28:55.444Z,8.41
2022-10-15T21:31:24.313Z,8.45
2022-10-15T21:33:54.243Z,8.47
2022-10-15T21:36:27.187Z,8.47
2022-10-15T21:39:00.710Z,8.46
2022-10-15T21:41:31.488Z,8.49
2022-10-15T21:44:00.978Z,8.50
2022-10-15T21:46:31.425Z,8.51
2022-10-15T21:49:00.786Z,8.52
2022-10-15T21:51:30.821Z,8.53
2022-10-15T21:53:59.950Z,8.52
2022-10-15T21:56:28.357Z,8.54
2022-10-15T21:58:56.508Z,8.60
2022-10-15T22:01:27.313Z,8.62
2022-10-15T22:03:59.926Z,8.64
2022-10-15T22:06:28.235Z,8.66
2022-10-15T22:08:56.181Z,8.68
2022-10-15T22:11:35.863Z,8.66
2022-10-15T22:14:08.435Z,8.63
2022-10-15T22:16:37.960Z,8.61
2022-10-15T22:19:07.853Z,8.59
2022-10-15T22:21:37.310Z,8.54
2022-10-15T22:24:09.784Z,8.50
2022-10-15T22:26:40.608Z,8.42
2022-10-15T22:29:11.750Z,8.34
2022-10-15T22:31:39.591Z,8.27
2022-10-15T22:34:07.447Z,8.21
2022-10-15T22:36:35.326Z,8.15
2022-10-15T22:39:05.561Z,8.09
2022-10-15T22:41:40.004Z,8.03
2022-10-15T22:44:09.933Z,7.97
2022-10-15T22:46:39.490Z,7.93
2022-10-15T22:49:08.771Z,7.90
2022-10-15T22:51:36.594Z,7.84
2022-10-15T22:54:05.325Z,7.79
2022-10-15T22:56:33.727Z,7.72
2022-10-15T22:59:01.638Z,7.65
2022-10-15T23:01:31.766Z,7.61
2022-10-15T23:04:02.649Z,7.57
2022-10-15T23:06:32.266Z,7.55
2022-10-15T23:09:01.373Z,7.53
2022-10-15T23:11:33.771Z,7.51
2022-10-15T23:14:20.628Z,7.51
2022-10-15T23:16:48.518Z,7.51
2022-10-15T23:19:19.633Z,7.52
2022-10-15T23:21:48.690Z,7.52
2022-10-15T23:24:18.999Z,7.56
2022-10-15T23:26:47.028Z,7.58
2022-10-15T23:29:21.483Z,7.61
2022-10-15T23:31:50.297Z,7.63
2022-10-15T23:34:26.421Z,7.66
2022-10-15T23:36:54.236Z,7.70
2022-10-15T23:39:25.158Z,7.74
2022-10-15T23:41:54.457Z,7.73
2022-10-15T23:44:25.765Z,7.70
2022-10-15T23:46:54.888Z,7.71
2022-10-15T23:49:22.770Z,7.70
2022-10-15T23:51:50.705Z,7.67
2022-10-15T23:54:19.083Z,7.66
2022-10-15T23:56:47.641Z,7.64
2022-10-15T23:59:17.099Z,7.63
